createdAt,value
2018-04-25T00:02:24.826Z,6.50
2018-04-25T00:04:53.104Z,6.53
2018-04-25T00:07:21.344Z,6.33
2018-04-25T00:09:49.598Z,5.80
2018-04-25T00:12:17.863Z,6.23
2018-04-25T00:14:46.112Z,6.77
2018-04-25T00:17:15.125Z,6.50
2018-04-25T00:19:43.754Z,6.90
2018-04-25T00:22:12.112Z,7.00
2018-04-25T00:24:40.473Z,6.83
2018-04-25T00:27:09.507Z,7.30
2018-04-25T00:29:37.840Z,6.43
2018-04-25T00:32:06.852Z,6.40
2018-04-25T00:34:35.122Z,6.70
2018-04-25T00:37:03.900Z,7.00
2018-04-25T00:39:32.921Z,7.13
2018-04-25T00:42:01.492Z,6.60
2018-04-25T00:44:29.809Z,7.00
2018-04-25T00:46:57.985Z,7.27
2018-04-25T00:49:26.252Z,6.67
2018-04-25T00:51:54.509Z,7.10
2018-04-25T00:54:22.756Z,6.90
2018-04-25T00:56:51.032Z,7.63
2018-04-25T00:59:19.277Z,7.40
2018-04-25T01:01:47.539Z,7.30
2018-04-25T01:04:17.037Z,7.90
2018-04-25T01:06:45.292Z,7.30
2018-04-25T01:09:13.536Z,6.60
2018-04-25T01:11:41.828Z,7.50
2018-04-25T01:14:10.845Z,7.73
2018-04-25T01:16:39.101Z,7.93
2018-04-25T01:19:07.364Z,7.80
2018-04-25T01:21:35.606Z,7.17
2018-04-25T01:24:03.853Z,8.37
2018-04-25T01:26:32.196Z,7.07
2018-04-25T01:29:00.440Z,6.40
2018-04-25T01:31:31.398Z,6.43
2018-04-25T01:34:19.388Z,6.87
2018-04-25T01:40:00.613Z,7.40
2018-04-25T01:42:29.852Z,7.13
2018-04-25T01:45:02.157Z,7.10
2018-04-25T01:47:34.182Z,7.80
2018-04-25T01:50:17.337Z,7.37
2018-04-25T01:52:57.365Z,6.93
2018-04-25T01:55:37.412Z,8.30
2018-04-25T01:58:17.396Z,8.03
2018-04-25T02:00:57.544Z,7.70
2018-04-25T02:03:36.353Z,8.13
2018-04-25T02:06:06.432Z,7.93
2018-04-25T02:08:34.689Z,8.33
2018-04-25T02:11:02.949Z,8.37
2018-04-25T02:13:31.229Z,8.17
2018-04-25T02:15:59.477Z,8.77
2018-04-25T02:18:27.729Z,8.20
2018-04-25T02:20:56.184Z,7.10
2018-04-25T02:23:25.696Z,7.60
2018-04-25T02:25:53.940Z,7.70
2018-04-25T02:28:22.221Z,8.20
2018-04-25T02:30:50.563Z,7.37
2018-04-25T02:33:19.592Z,7.57
2018-04-25T02:35:47.868Z,7.43
2018-04-25T02:38:16.377Z,6.50
2018-04-25T02:40:44.624Z,7.17
2018-04-25T02:43:13.116Z,7.07
2018-04-25T02:45:44.861Z,6.87
2018-04-25T02:48:13.226Z,7.00
2018-04-25T02:50:42.266Z,7.40
2018-04-25T02:53:10.517Z,7.90
2018-04-25T02:55:38.761Z,7.40
2018-04-25T02:58:07.040Z,6.10
2018-04-25T03:00:36.060Z,6.80
2018-04-25T03:03:04.306Z,7.07
2018-04-25T03:05:33.218Z,7.83
2018-04-25T03:08:01.490Z,7.23
2018-04-25T03:10:30.503Z,6.83
2018-04-25T03:12:59.772Z,8.03
2018-04-25T03:15:28.796Z,8.00
2018-04-25T03:17:57.036Z,6.93
2018-04-25T03:20:25.308Z,7.90
2018-04-25T03:22:53.552Z,7.07
2018-04-25T03:25:21.801Z,7.00
2018-04-25T03:27:50.148Z,6.80
2018-04-25T03:30:18.429Z,7.00
2018-04-25T03:32:47.446Z,7.80
2018-04-25T03:35:15.716Z,8.10
2018-04-25T03:37:43.960Z,7.53
2018-04-25T03:40:17.461Z,8.10
2018-04-25T03:42:46.469Z,7.70
2018-04-25T03:45:15.622Z,8.53
2018-04-25T03:47:44.199Z,8.33
2018-04-25T03:50:12.449Z,8.40
2018-04-25T03:52:40.696Z,9.00
2018-04-25T03:55:08.981Z,9.30
2018-04-25T03:57:37.998Z,10.20
2018-04-25T04:00:06.254Z,9.60
2018-04-25T04:02:34.520Z,8.57
2018-04-25T04:05:02.777Z,9.30
2018-04-25T04:07:31.016Z,8.50
2018-04-25T04:09:59.357Z,8.73
2018-04-25T04:12:27.604Z,8.00
2018-04-25T04:14:55.857Z,8.63
2018-04-25T04:17:24.133Z,10.93
2018-04-25T04:19:52.397Z,8.93
2018-04-25T04:22:20.645Z,8.80
2018-04-25T04:24:49.317Z,9.27
2018-04-25T04:27:17.517Z,9.37
2018-04-25T04:29:45.766Z,8.00
2018-04-25T04:32:14.228Z,9.27
2018-04-25T04:34:42.481Z,9.90
2018-04-25T04:37:10.736Z,10.63
2018-04-25T04:39:39.004Z,9.90
2018-04-25T04:42:07.569Z,9.80
2018-04-25T04:44:36.581Z,8.00
2018-04-25T04:47:04.862Z,9.47
2018-04-25T04:49:33.427Z,8.53
2018-04-25T04:52:01.612Z,7.33
2018-04-25T04:54:30.239Z,6.97
2018-04-25T04:56:58.464Z,7.83
2018-04-25T04:59:27.529Z,6.57
2018-04-25T05:01:55.797Z,7.50
2018-04-25T05:04:24.047Z,6.87
2018-04-25T05:06:52.780Z,5.60
2018-04-25T05:09:21.060Z,8.43
2018-04-25T05:11:49.305Z,6.57
2018-04-25T05:14:17.551Z,7.07
2018-04-25T05:16:46.152Z,7.27
2018-04-25T05:19:14.397Z,6.70
2018-04-25T05:21:42.652Z,6.30
2018-04-25T05:24:12.157Z,6.30
2018-04-25T05:26:41.181Z,7.13
2018-04-25T05:29:09.429Z,6.63
2018-04-25T05:31:37.830Z,5.57
2018-04-25T05:34:06.068Z,6.60
2018-04-25T05:36:34.316Z,7.43
2018-04-25T05:39:02.787Z,6.87
2018-04-25T05:41:31.043Z,6.63
2018-04-25T05:43:59.780Z,7.40
2018-04-25T05:46:28.049Z,7.00
2018-04-25T05:48:56.296Z,7.10
2018-04-25T05:51:24.640Z,6.87
2018-04-25T05:53:53.688Z,7.00
2018-04-25T05:56:21.932Z,7.03
2018-04-25T05:58:50.188Z,6.37
2018-04-25T06:01:18.808Z,6.10
2018-04-25T06:03:47.116Z,7.07
2018-04-25T06:06:15.386Z,7.20
2018-04-25T06:08:43.641Z,6.40
2018-04-25T06:11:11.896Z,7.73
2018-04-25T06:13:40.148Z,6.53
2018-04-25T06:16:08.437Z,8.03
2018-04-25T06:18:37.589Z,7.00
2018-04-25T06:21:05.833Z,7.70
2018-04-25T06:23:34.238Z,6.47
2018-04-25T06:26:02.488Z,6.37
2018-04-25T06:28:30.740Z,5.67
2018-04-25T06:31:00.244Z,6.40
2018-04-25T06:33:29.265Z,7.20
2018-04-25T06:35:57.517Z,6.20
2018-04-25T06:38:25.792Z,7.10
2018-04-25T06:40:54.037Z,6.30
2018-04-25T06:43:22.285Z,6.60
2018-04-25T06:45:51.061Z,6.43
2018-04-25T06:48:19.309Z,5.60
2018-04-25T06:50:47.593Z,5.77
2018-04-25T06:53:15.833Z,5.50
2018-04-25T06:55:44.086Z,5.90
2018-04-25T06:58:12.341Z,6.23
2018-04-25T07:00:40.622Z,6.13
2018-04-25T07:03:08.868Z,6.03
2018-04-25T07:05:37.910Z,5.50
2018-04-25T07:08:06.293Z,5.30
2018-04-25T07:10:34.540Z,5.80
2018-04-25T07:13:02.892Z,6.13
2018-04-25T07:15:31.173Z,5.50
2018-04-25T07:17:59.609Z,5.73
2018-04-25T07:20:27.836Z,6.47
2018-04-25T07:22:56.871Z,4.70
2018-04-25T07:25:25.158Z,6.37
2018-04-25T07:27:53.404Z,5.60
2018-04-25T07:30:22.308Z,4.77
2018-04-25T07:32:50.549Z,5.87
2018-04-25T07:35:18.819Z,5.30
2018-04-25T07:37:47.069Z,5.20
2018-04-25T07:40:15.366Z,4.87
2018-04-25T07:42:43.648Z,5.00
2018-04-25T07:45:11.925Z,5.70
2018-04-25T07:47:41.224Z,5.57
2018-04-25T07:50:10.240Z,5.77
2018-04-25T07:52:38.704Z,6.70
2018-04-25T07:55:06.961Z,5.83
2018-04-25T07:57:35.208Z,5.13
2018-04-25T08:00:03.473Z,4.80
2018-04-25T08:02:31.724Z,5.00
2018-04-25T08:04:59.976Z,5.80
2018-04-25T08:07:28.243Z,4.47
2018-04-25T08:09:59.445Z,5.10
2018-04-25T08:12:39.848Z,5.67
2018-04-25T08:15:20.568Z,4.93
2018-04-25T08:18:00.630Z,4.20
2018-04-25T08:21:01.301Z,4.30
2018-04-25T08:23:29.572Z,4.00
2018-04-25T08:25:58.113Z,3.70
2018-04-25T08:28:26.352Z,3.80
2018-04-25T08:30:54.988Z,3.70
2018-04-25T08:33:23.237Z,3.53
2018-04-25T08:35:51.513Z,3.80
2018-04-25T08:38:19.777Z,4.03
2018-04-25T08:40:48.081Z,3.70
2018-04-25T08:43:16.324Z,3.77
2018-04-25T08:45:44.600Z,3.73
2018-04-25T08:48:13.904Z,3.87
2018-04-25T08:50:42.919Z,4.37
2018-04-25T08:53:11.362Z,4.07
2018-04-25T08:55:39.613Z,4.47
2018-04-25T08:58:07.856Z,4.20
2018-04-25T09:00:36.135Z,4.00
2018-04-25T09:03:04.378Z,5.10
2018-04-25T09:05:32.629Z,4.20
2018-04-25T09:08:00.909Z,5.73
2018-04-25T09:10:29.163Z,5.77
2018-04-25T09:12:57.410Z,5.30
2018-04-25T09:15:25.869Z,5.60
2018-04-25T09:17:54.144Z,5.27
2018-04-25T09:20:23.227Z,5.03
2018-04-25T09:22:51.432Z,4.70
2018-04-25T09:25:19.684Z,4.33
2018-04-25T09:27:47.924Z,4.87
2018-04-25T09:30:16.267Z,5.47
2018-04-25T09:32:44.440Z,5.30
2018-04-25T09:35:12.688Z,4.87
2018-04-25T09:37:41.673Z,5.30
2018-04-25T09:40:09.902Z,4.77
2018-04-25T09:42:38.146Z,5.10
2018-04-25T09:45:06.410Z,4.73
2018-04-25T09:47:34.652Z,5.20
2018-04-25T09:50:03.076Z,5.10
2018-04-25T09:52:32.112Z,5.50
2018-04-25T09:55:00.364Z,4.60
2018-04-25T09:57:28.728Z,5.10
2018-04-25T09:59:57.249Z,5.13
2018-04-25T10:02:31.153Z,4.60
2018-04-25T10:04:59.524Z,4.90
2018-04-25T10:07:27.784Z,6.07
2018-04-25T10:09:56.041Z,4.93
2018-04-25T10:12:24.315Z,4.70
2018-04-25T10:14:52.556Z,5.67
2018-04-25T10:17:20.816Z,5.80
2018-04-25T10:19:49.924Z,5.03
2018-04-25T10:22:18.232Z,5.23
2018-04-25T10:24:46.527Z,3.80
2018-04-25T10:27:15.561Z,5.23
2018-04-25T10:29:43.898Z,4.50
2018-04-25T10:32:12.921Z,4.43
2018-04-25T10:34:41.296Z,4.57
2018-04-25T10:37:09.544Z,4.77
2018-04-25T10:39:37.793Z,3.83
2018-04-25T10:42:06.572Z,6.00
2018-04-25T10:44:34.937Z,4.60
2018-04-25T10:47:03.187Z,5.63
2018-04-25T10:49:31.469Z,4.23
2018-04-25T10:51:59.928Z,5.20
2018-04-25T10:54:28.940Z,4.97
2018-04-25T10:56:57.213Z,5.33
2018-04-25T10:59:27.749Z,4.70
2018-04-25T11:01:55.992Z,4.80
2018-04-25T11:04:26.319Z,4.93
2018-04-25T11:06:54.412Z,4.90
2018-04-25T11:09:22.654Z,5.53
2018-04-25T11:11:50.925Z,4.90
2018-04-25T11:14:20.120Z,5.20
2018-04-25T11:16:48.577Z,5.83
2018-04-25T11:19:17.685Z,5.60
2018-04-25T11:21:45.960Z,4.57
2018-04-25T11:24:14.200Z,6.00
2018-04-25T11:26:42.924Z,5.70
2018-04-25T11:29:11.146Z,5.03
2018-04-25T11:31:40.158Z,6.00
2018-04-25T11:34:08.429Z,5.50
2018-04-25T11:36:37.546Z,6.20
2018-04-25T11:39:05.777Z,5.97
2018-04-25T11:41:34.122Z,4.97
2018-04-25T11:44:03.539Z,6.87
2018-04-25T11:46:31.795Z,6.13
2018-04-25T11:49:00.130Z,6.40
2018-04-25T11:51:28.372Z,6.50
2018-04-25T11:53:56.755Z,6.63
2018-04-25T11:56:25.032Z,5.93
2018-04-25T11:58:54.784Z,6.00
2018-04-25T12:01:23.038Z,6.20
2018-04-25T12:03:51.313Z,5.90
2018-04-25T12:06:19.561Z,6.87
2018-04-25T12:08:47.809Z,6.83
2018-04-25T12:11:16.401Z,6.93
2018-04-25T12:13:44.648Z,5.67
2018-04-25T12:16:12.892Z,5.23
2018-04-25T12:18:41.166Z,4.83
2018-04-25T12:21:09.417Z,4.03
2018-04-25T12:23:39.802Z,4.97
2018-04-25T12:26:08.832Z,4.93
2018-04-25T12:28:37.072Z,4.63
2018-04-25T12:31:05.313Z,4.70
2018-04-25T12:33:34.809Z,5.10
2018-04-25T12:36:03.040Z,4.40
2018-04-25T12:38:31.357Z,4.67
2018-04-25T12:40:59.628Z,5.00
2018-04-25T12:43:27.894Z,4.10
2018-04-25T12:45:56.172Z,4.43
2018-04-25T12:48:24.429Z,4.17
2018-04-25T12:50:52.673Z,4.30
2018-04-25T12:53:20.911Z,5.03
2018-04-25T12:55:49.835Z,4.50
2018-04-25T12:58:18.080Z,4.50
2018-04-25T13:00:46.337Z,4.13
2018-04-25T13:03:14.601Z,4.70
2018-04-25T13:05:42.848Z,5.03
2018-04-25T13:08:11.882Z,4.07
2018-04-25T13:10:41.191Z,4.10
2018-04-25T13:13:09.688Z,4.40
2018-04-25T13:15:37.924Z,4.60
2018-04-25T13:18:06.749Z,4.03
2018-04-25T13:20:34.992Z,5.07
2018-04-25T13:23:03.268Z,4.40
2018-04-25T13:25:31.537Z,4.90
2018-04-25T13:28:00.605Z,4.93
2018-04-25T13:30:30.350Z,4.60
2018-04-25T13:32:58.729Z,6.20
2018-04-25T13:35:26.976Z,4.97
2018-04-25T13:37:55.262Z,6.37
2018-04-25T13:40:24.501Z,6.07
2018-04-25T13:42:52.803Z,6.33
2018-04-25T13:45:21.350Z,4.87
2018-04-25T13:47:49.628Z,5.87
2018-04-25T13:50:17.870Z,5.07
2018-04-25T13:52:46.111Z,5.03
2018-04-25T13:55:17.653Z,4.30
2018-04-25T13:57:46.181Z,5.57
2018-04-25T14:00:15.525Z,3.97
2018-04-25T14:02:43.796Z,4.83
2018-04-25T14:05:12.517Z,4.60
2018-04-25T14:07:40.792Z,4.23
2018-04-25T14:10:09.041Z,4.50
2018-04-25T14:12:37.291Z,3.93
2018-04-25T14:15:05.564Z,3.90
2018-04-25T14:17:34.569Z,3.03
2018-04-25T14:20:02.836Z,3.50
2018-04-25T14:22:31.556Z,3.60
2018-04-25T14:24:59.842Z,3.50
2018-04-25T14:27:28.098Z,3.50
2018-04-25T14:29:56.499Z,3.57
2018-04-25T14:32:24.730Z,3.40
2018-04-25T14:34:53.749Z,3.90
2018-04-25T14:37:22.088Z,3.23
2018-04-25T14:39:51.104Z,4.00
2018-04-25T14:42:19.369Z,3.80
2018-04-25T14:44:47.885Z,4.03
2018-04-25T14:47:16.142Z,3.43
2018-04-25T14:49:44.391Z,3.40
2018-04-25T14:52:13.416Z,3.07
2018-04-25T14:54:43.632Z,2.87
2018-04-25T14:57:11.792Z,3.70
2018-04-25T14:59:40.103Z,2.43
2018-04-25T15:02:08.352Z,2.70
2018-04-25T15:04:36.781Z,2.57
2018-04-25T15:07:05.468Z,2.73
2018-04-25T15:09:33.708Z,2.57
2018-04-25T15:12:02.024Z,2.93
2018-04-25T15:14:30.300Z,2.50
2018-04-25T15:16:58.544Z,2.33
2018-04-25T15:19:26.804Z,2.47
2018-04-25T15:21:55.076Z,2.00
2018-04-25T15:24:23.328Z,2.10
2018-04-25T15:26:51.575Z,2.47
2018-04-25T15:29:20.022Z,2.10
2018-04-25T15:31:48.433Z,2.10
2018-04-25T15:34:16.717Z,2.50
2018-04-25T15:36:44.994Z,2.20
2018-04-25T15:39:13.259Z,1.90
2018-04-25T15:41:41.967Z,2.67
2018-04-25T15:44:10.236Z,2.10
2018-04-25T15:46:38.501Z,2.17
2018-04-25T15:49:07.382Z,1.83
2018-04-25T15:51:36.981Z,2.40
2018-04-25T15:54:05.245Z,1.80
2018-04-25T15:56:33.492Z,1.87
2018-04-25T15:59:01.772Z,2.07
2018-04-25T16:01:31.076Z,2.07
2018-04-25T16:04:00.097Z,2.30
2018-04-25T16:06:28.436Z,1.93
2018-04-25T16:08:56.679Z,2.10
2018-04-25T16:11:24.926Z,1.90
2018-04-25T16:13:53.248Z,1.90
2018-04-25T16:16:21.510Z,1.70
2018-04-25T16:18:49.933Z,2.10
2018-04-25T16:21:18.234Z,2.43
2018-04-25T16:23:47.232Z,2.70
2018-04-25T16:26:15.605Z,2.80
2018-04-25T16:28:44.877Z,2.70
2018-04-25T16:31:13.942Z,2.50
2018-04-25T16:33:42.158Z,2.13
2018-04-25T16:36:11.269Z,2.50
2018-04-25T16:38:39.495Z,2.97
2018-04-25T16:41:07.795Z,2.13
2018-04-25T16:43:37.619Z,2.50
2018-04-25T16:46:05.851Z,2.70
2018-04-25T16:48:34.100Z,2.13
2018-04-25T16:51:02.372Z,2.50
2018-04-25T16:53:30.620Z,2.40
2018-04-25T16:55:59.251Z,3.03
2018-04-25T16:58:27.718Z,2.30
2018-04-25T17:00:55.963Z,1.70
2018-04-25T17:03:25.157Z,1.70
2018-04-25T17:05:54.192Z,1.77
2018-04-25T17:08:22.437Z,2.20
2018-04-25T17:10:50.679Z,1.90
2018-04-25T17:13:18.992Z,1.90
2018-04-25T17:15:47.255Z,1.60
2018-04-25T17:18:16.429Z,1.40
2018-04-25T17:20:44.895Z,1.70
2018-04-25T17:23:13.145Z,1.77
2018-04-25T17:25:41.395Z,1.97
2018-04-25T17:28:09.660Z,1.70
2018-04-25T17:30:37.964Z,1.73
2018-04-25T17:33:07.453Z,1.83
2018-04-25T17:35:35.745Z,1.63
2018-04-25T17:38:04.009Z,2.03
2018-04-25T17:40:33.019Z,2.10
2018-04-25T17:43:01.720Z,1.70
2018-04-25T17:45:29.965Z,1.90
2018-04-25T17:47:58.208Z,1.60
2018-04-25T17:50:26.483Z,1.70
2018-04-25T17:52:54.747Z,1.83
2018-04-25T17:55:22.981Z,1.77
2018-04-25T17:57:53.180Z,1.80
2018-04-25T18:00:22.192Z,1.50
2018-04-25T18:02:50.552Z,1.53
2018-04-25T18:05:19.877Z,2.00
2018-04-25T18:07:48.125Z,1.93
2018-04-25T18:10:17.141Z,1.77
2018-04-25T18:12:45.404Z,2.00
2018-04-25T18:15:13.650Z,1.67
2018-04-25T18:17:41.901Z,2.20
2018-04-25T18:20:10.168Z,1.80
2018-04-25T18:22:38.412Z,1.60
2018-04-25T18:25:06.661Z,1.60
2018-04-25T18:27:35.316Z,1.60
2018-04-25T18:30:05.827Z,1.57
2018-04-25T18:32:34.071Z,2.20
2018-04-25T18:35:02.341Z,2.20
2018-04-25T18:37:31.349Z,2.00
2018-04-25T18:39:59.592Z,2.40
2018-04-25T18:42:27.877Z,2.20
2018-04-25T18:44:56.120Z,2.27
2018-04-25T18:47:24.618Z,1.80
2018-04-25T18:49:53.173Z,1.80
2018-04-25T18:52:21.424Z,2.17
2018-04-25T18:54:49.664Z,1.80
2018-04-25T18:57:17.933Z,2.10
2018-04-25T18:59:46.177Z,2.13
2018-04-25T19:02:14.429Z,2.10
2018-04-25T19:04:43.520Z,1.70
2018-04-25T19:07:12.740Z,1.50
2018-04-25T19:09:40.989Z,2.20
2018-04-25T19:12:09.537Z,1.83
2018-04-25T19:14:37.776Z,2.03
2018-04-25T19:17:06.025Z,2.30
2018-04-25T19:19:34.289Z,1.77
2018-04-25T19:22:03.041Z,1.83
2018-04-25T19:24:31.284Z,1.90
2018-04-25T19:26:59.565Z,1.90
2018-04-25T19:29:27.806Z,2.20
2018-04-25T19:31:56.057Z,2.80
2018-04-25T19:34:24.624Z,2.00
2018-04-25T19:36:52.884Z,2.13
2018-04-25T19:39:21.304Z,2.30
2018-04-25T19:41:50.084Z,3.20
2018-04-25T19:44:18.325Z,2.10
2018-04-25T19:46:46.576Z,2.23
2018-04-25T19:49:15.018Z,2.37
2018-04-25T19:51:43.264Z,2.27
2018-04-25T19:54:11.616Z,1.90
2018-04-25T19:56:40.965Z,2.30
2018-04-25T19:59:09.217Z,2.37
2018-04-25T20:01:37.473Z,2.13
2018-04-25T20:04:05.920Z,2.20
2018-04-25T20:06:34.172Z,2.10
2018-04-25T20:09:03.424Z,2.67
2018-04-25T20:11:32.860Z,2.30
2018-04-25T20:14:01.108Z,2.40
2018-04-25T20:16:30.992Z,2.50
2018-04-25T20:19:00.393Z,2.57
2018-04-25T20:21:28.632Z,2.13
2018-04-25T20:23:56.877Z,2.20
2018-04-25T20:26:25.147Z,2.33
2018-04-25T20:28:54.154Z,2.40
2018-04-25T20:31:23.168Z,2.77
2018-04-25T20:33:51.433Z,2.20
2018-04-25T20:36:19.723Z,2.27
2018-04-25T20:38:47.935Z,2.27
2018-04-25T20:41:16.715Z,2.60
2018-04-25T20:43:45.016Z,2.33
2018-04-25T20:46:13.249Z,2.50
2018-04-25T20:48:43.071Z,1.90
2018-04-25T20:51:11.330Z,2.20
2018-04-25T20:53:40.668Z,2.20
2018-04-25T20:56:08.935Z,2.33
2018-04-25T20:58:37.185Z,2.33
2018-04-25T21:01:05.540Z,2.40
2018-04-25T21:03:34.661Z,2.50
2018-04-25T21:06:02.912Z,2.37
2018-04-25T21:08:31.937Z,2.27
2018-04-25T21:11:00.567Z,2.90
2018-04-25T21:13:29.277Z,2.40
2018-04-25T21:15:58.302Z,2.17
2018-04-25T21:18:26.697Z,2.77
2018-04-25T21:20:54.935Z,2.40
2018-04-25T21:23:23.199Z,2.33
2018-04-25T21:25:52.058Z,2.37
2018-04-25T21:28:20.304Z,2.17
2018-04-25T21:30:48.554Z,2.03
2018-04-25T21:33:17.591Z,1.73
2018-04-25T21:35:46.527Z,2.33
2018-04-25T21:38:16.484Z,2.53
2018-04-25T21:40:44.756Z,2.80
2018-04-25T21:43:12.997Z,2.03
2018-04-25T21:45:42.027Z,2.07
2018-04-25T21:48:10.468Z,2.10
2018-04-25T21:50:38.709Z,2.50
2018-04-25T21:53:06.955Z,2.50
2018-04-25T21:55:35.220Z,2.50
2018-04-25T21:58:03.528Z,2.40
2018-04-25T22:00:32.558Z,2.10
2018-04-25T22:03:01.018Z,2.27
2018-04-25T22:05:29.266Z,2.50
2018-04-25T22:07:57.508Z,2.00
2018-04-25T22:10:26.034Z,1.87
2018-04-25T22:12:54.678Z,2.40
2018-04-25T22:15:23.686Z,2.20
2018-04-25T22:17:51.953Z,3.23
2018-04-25T22:20:20.196Z,2.10
2018-04-25T22:22:48.492Z,2.17
2018-04-25T22:25:17.525Z,2.40
2018-04-25T22:27:45.773Z,2.43
2018-04-25T22:30:14.022Z,2.57
2018-04-25T22:32:42.389Z,1.80
2018-04-25T22:35:10.641Z,1.93
2018-04-25T22:37:38.881Z,2.20
2018-04-25T22:40:07.334Z,2.00
2018-04-25T22:42:35.692Z,1.60
2018-04-25T22:45:03.924Z,2.30
2018-04-25T22:47:32.190Z,1.93
2018-04-25T22:50:00.461Z,1.77
2018-04-25T22:52:28.702Z,1.63
2018-04-25T22:54:58.410Z,1.90
2018-04-25T22:57:26.653Z,1.40
2018-04-25T22:59:54.901Z,1.90
2018-04-25T23:02:23.168Z,1.60
2018-04-25T23:04:52.177Z,1.57
2018-04-25T23:07:21.191Z,1.83
2018-04-25T23:09:49.826Z,1.63
2018-04-25T23:12:18.068Z,2.10
2018-04-25T23:14:46.367Z,1.80
2018-04-25T23:17:15.032Z,1.87
2018-04-25T23:19:43.273Z,1.60
2018-04-25T23:22:14.423Z,1.53
2018-04-25T23:24:42.732Z,1.90
2018-04-25T23:27:10.972Z,2.03
2018-04-25T23:29:39.980Z,1.63
2018-04-25T23:32:08.243Z,1.77
2018-04-25T23:34:36.484Z,1.80
2018-04-25T23:37:04.719Z,1.90
2018-04-25T23:39:33.052Z,2.10
2018-04-25T23:42:01.297Z,2.10
2018-04-25T23:44:29.540Z,2.13
2018-04-25T23:46:57.820Z,1.87
2018-04-25T23:49:26.056Z,1.73
2018-04-25T23:51:55.066Z,1.87
2018-04-25T23:54:24.091Z,1.93
2018-04-25T23:56:52.338Z,2.30
2018-04-25T23:59:20.576Z,2.37
